createdAt,value
2023-05-07T00:00:12.641Z,8.18
2023-05-07T00:02:41.138Z,8.14
2023-05-07T00:05:09.724Z,8.06
2023-05-07T00:07:37.624Z,8.03
2023-05-07T00:10:07.334Z,8.04
2023-05-07T00:12:34.974Z,8.02
2023-05-07T00:15:06.217Z,8.00
2023-05-07T00:17:33.620Z,7.99
2023-05-07T00:20:00.501Z,7.92
2023-05-07T00:22:27.474Z,7.86
2023-05-07T00:24:54.416Z,7.83
2023-05-07T00:27:21.250Z,7.84
2023-05-07T00:29:53.246Z,7.84
2023-05-07T00:32:20.697Z,7.86
2023-05-07T00:34:47.527Z,7.87
2023-05-07T00:37:14.445Z,7.84
2023-05-07T00:39:41.339Z,7.82
2023-05-07T00:42:08.727Z,7.78
2023-05-07T00:44:36.383Z,7.76
2023-05-07T00:47:04.057Z,7.75
2023-05-07T00:49:42.579Z,7.68
2023-05-07T00:52:11.602Z,7.62
2023-05-07T00:54:38.462Z,7.56
2023-05-07T00:57:05.331Z,7.52
2023-05-07T00:59:33.391Z,7.55
2023-05-07T01:02:00.450Z,7.54
2023-05-07T01:04:27.550Z,7.53
2023-05-07T01:07:00.230Z,7.53
2023-05-07T01:09:27.742Z,7.47
2023-05-07T01:11:54.793Z,7.44
2023-05-07T01:14:21.644Z,7.46
2023-05-07T01:16:55.882Z,7.46
2023-05-07T01:19:23.778Z,7.43
2023-05-07T01:21:51.102Z,7.42
2023-05-07T01:24:19.067Z,7.36
2023-05-07T01:26:46.248Z,7.35
2023-05-07T01:29:14.852Z,7.35
2023-05-07T01:31:42.045Z,7.31
2023-05-07T01:34:14.225Z,7.28
2023-05-07T01:36:41.085Z,7.24
2023-05-07T01:39:13.090Z,7.21
2023-05-07T01:41:40.504Z,7.17
2023-05-07T01:44:07.627Z,7.12
2023-05-07T01:46:34.492Z,7.10
2023-05-07T01:49:01.474Z,7.09
2023-05-07T01:51:28.652Z,7.00
2023-05-07T01:53:56.830Z,6.97
2023-05-07T01:56:25.509Z,6.96
2023-05-07T01:58:52.614Z,6.95
2023-05-07T02:01:19.785Z,6.94
2023-05-07T02:03:47.425Z,6.94
2023-05-07T02:06:19.910Z,6.92
2023-05-07T02:08:47.440Z,6.92
2023-05-07T02:11:15.514Z,6.93
2023-05-07T02:13:43.015Z,6.91
2023-05-07T02:16:15.276Z,6.92
2023-05-07T02:18:42.304Z,6.95
2023-05-07T02:21:14.228Z,6.95
2023-05-07T02:23:41.091Z,6.91
2023-05-07T02:26:08.255Z,6.87
2023-05-07T02:28:36.058Z,6.83
2023-05-07T02:31:04.935Z,6.83
2023-05-07T02:33:32.317Z,6.82
2023-05-07T02:36:10.183Z,6.84
2023-05-07T02:38:41.077Z,6.88
2023-05-07T02:41:07.931Z,6.85
2023-05-07T02:43:35.177Z,6.89
2023-05-07T02:46:03.265Z,6.89
2023-05-07T02:48:30.746Z,6.90
2023-05-07T02:50:58.375Z,6.84
2023-05-07T02:53:30.011Z,6.84
2023-05-07T02:55:57.732Z,6.86
2023-05-07T02:58:24.922Z,6.87
2023-05-07T03:00:51.990Z,6.86
2023-05-07T03:03:31.846Z,6.89
2023-05-07T03:05:58.709Z,6.90
2023-05-07T03:08:25.546Z,6.92
2023-05-07T03:10:57.689Z,6.94
2023-05-07T03:13:24.893Z,6.93
2023-05-07T03:15:52.592Z,6.94
2023-05-07T03:18:19.668Z,6.97
2023-05-07T03:20:48.452Z,7.04
2023-05-07T03:23:15.897Z,7.05
2023-05-07T03:25:42.831Z,7.05
2023-05-07T03:28:10.030Z,7.03
2023-05-07T03:30:53.499Z,6.99
2023-05-07T03:33:20.673Z,7.00
2023-05-07T03:35:47.685Z,7.02
2023-05-07T03:38:18.430Z,7.06
2023-05-07T03:40:45.331Z,7.10
2023-05-07T03:43:17.548Z,7.10
2023-05-07T03:45:48.170Z,7.13
2023-05-07T03:48:19.709Z,7.14
2023-05-07T03:50:48.508Z,7.16
2023-05-07T03:53:16.250Z,7.19
2023-05-07T03:55:43.320Z,7.21
2023-05-07T03:58:10.211Z,7.22
2023-05-07T04:00:39.624Z,7.25
2023-05-07T04:03:13.548Z,7.29
2023-05-07T04:05:41.499Z,7.34
2023-05-07T04:08:08.296Z,7.42
2023-05-07T04:10:43.306Z,7.43
2023-05-07T04:13:11.242Z,7.46
2023-05-07T04:15:38.191Z,7.53
2023-05-07T04:18:12.976Z,7.59
2023-05-07T04:20:41.045Z,7.66
2023-05-07T04:23:10.266Z,7.68
2023-05-07T04:25:37.783Z,7.73
2023-05-07T04:28:12.047Z,7.81
2023-05-07T04:30:39.477Z,7.84
2023-05-07T04:33:07.279Z,7.85
2023-05-07T04:35:36.086Z,7.93
2023-05-07T04:38:04.455Z,7.96
2023-05-07T04:40:33.688Z,8.03
2023-05-07T04:43:01.702Z,8.09
2023-05-07T04:45:32.673Z,8.15
2023-05-07T04:47:59.865Z,8.23
2023-05-07T04:50:32.662Z,8.32
2023-05-07T04:53:00.902Z,8.39
2023-05-07T04:55:27.684Z,8.44
2023-05-07T04:57:54.649Z,8.49
2023-05-07T05:00:21.782Z,8.53
2023-05-07T05:02:54.747Z,8.58
2023-05-07T05:05:22.174Z,8.64
2023-05-07T05:07:52.166Z,8.76
2023-05-07T05:10:19.369Z,8.85
2023-05-07T05:12:46.511Z,8.95
2023-05-07T05:15:13.429Z,9.04
2023-05-07T05:17:41.769Z,9.14
2023-05-07T05:20:11.469Z,9.23
2023-05-07T05:22:39.382Z,9.27
2023-05-07T05:25:06.975Z,9.33
2023-05-07T05:27:36.069Z,9.40
2023-05-07T05:30:04.359Z,9.50
2023-05-07T05:32:32.741Z,9.64
2023-05-07T05:35:00.594Z,9.74
2023-05-07T05:37:27.633Z,9.86
2023-05-07T05:39:55.352Z,9.93
2023-05-07T05:42:28.814Z,10.00
2023-05-07T05:45:01.010Z,10.12
2023-05-07T05:47:29.046Z,10.18
2023-05-07T05:50:01.576Z,10.24
2023-05-07T05:52:28.878Z,10.28
2023-05-07T05:54:56.292Z,10.38
2023-05-07T05:57:23.500Z,10.46
2023-05-07T05:59:55.729Z,10.54
2023-05-07T06:02:22.632Z,10.64
2023-05-07T06:04:49.903Z,10.78
2023-05-07T06:07:18.573Z,10.88
2023-05-07T06:09:45.518Z,10.95
2023-05-07T06:12:17.834Z,11.07
2023-05-07T06:14:44.735Z,11.17
2023-05-07T06:17:11.838Z,11.24
2023-05-07T06:19:39.237Z,11.32
2023-05-07T06:22:06.138Z,11.36
2023-05-07T06:24:34.745Z,11.49
2023-05-07T06:27:06.711Z,11.64
2023-05-07T06:29:34.186Z,11.77
2023-05-07T06:32:11.872Z,11.82
2023-05-07T06:34:40.393Z,11.85
2023-05-07T06:37:07.403Z,11.88
2023-05-07T06:39:49.219Z,11.99
2023-05-07T06:42:17.236Z,12.09
2023-05-07T06:44:44.297Z,12.15
2023-05-07T06:47:18.925Z,12.28
2023-05-07T06:49:48.986Z,12.42
2023-05-07T06:52:17.912Z,12.56
2023-05-07T06:54:45.451Z,12.71
2023-05-07T06:57:12.359Z,12.85
2023-05-07T06:59:44.515Z,12.96
2023-05-07T07:02:12.062Z,13.09
2023-05-07T07:04:39.760Z,13.23
2023-05-07T07:07:10.151Z,13.32
2023-05-07T07:09:37.324Z,13.47
2023-05-07T07:12:11.264Z,13.62
2023-05-07T07:14:39.225Z,13.61
2023-05-07T07:17:06.456Z,13.60
2023-05-07T07:19:34.294Z,13.71
2023-05-07T07:22:02.942Z,13.83
2023-05-07T07:24:30.087Z,13.99
2023-05-07T07:26:58.627Z,14.08
2023-05-07T07:29:30.703Z,14.18
2023-05-07T07:31:57.470Z,14.19
2023-05-07T07:34:24.809Z,14.26
2023-05-07T07:36:57.094Z,14.38
2023-05-07T07:39:24.452Z,14.53
2023-05-07T07:41:53.052Z,14.57
2023-05-07T07:44:20.877Z,14.64
2023-05-07T07:46:51.319Z,14.80
2023-05-07T07:49:18.796Z,14.95
2023-05-07T07:51:46.038Z,15.02
2023-05-07T07:54:13.050Z,15.07
2023-05-07T07:56:40.609Z,15.17
2023-05-07T07:59:07.615Z,15.24
2023-05-07T08:01:35.192Z,15.25
2023-05-07T08:04:03.947Z,15.36
2023-05-07T08:06:32.011Z,15.50
2023-05-07T08:08:58.873Z,15.60
2023-05-07T08:11:26.466Z,15.74
2023-05-07T08:13:55.499Z,15.93
2023-05-07T08:16:23.555Z,16.13
2023-05-07T08:18:52.406Z,16.27
2023-05-07T08:21:19.644Z,16.38
2023-05-07T08:23:46.423Z,16.50
2023-05-07T08:26:13.292Z,16.57
2023-05-07T08:28:40.333Z,16.70
2023-05-07T08:31:08.373Z,16.78
2023-05-07T08:33:42.040Z,16.91
2023-05-07T08:36:08.964Z,16.99
2023-05-07T08:38:36.317Z,17.06
2023-05-07T08:41:03.560Z,17.24
2023-05-07T08:43:31.210Z,17.47
2023-05-07T08:45:58.120Z,17.56
2023-05-07T08:48:27.344Z,17.64
2023-05-07T08:51:18.744Z,17.93
2023-05-07T08:53:46.884Z,18.22
2023-05-07T08:56:16.150Z,18.58
2023-05-07T08:58:43.663Z,18.75
2023-05-07T09:01:13.801Z,19.05
2023-05-07T09:03:40.948Z,19.48
2023-05-07T09:06:08.053Z,20.05
2023-05-07T09:08:52.088Z,20.57
2023-05-07T09:11:23.262Z,21.19
2023-05-07T09:13:54.805Z,21.64
2023-05-07T09:16:22.626Z,21.92
2023-05-07T09:18:51.947Z,22.38
2023-05-07T09:21:19.518Z,22.80
2023-05-07T09:23:51.993Z,23.15
2023-05-07T09:26:24.150Z,23.50
2023-05-07T09:28:51.401Z,24.02
2023-05-07T09:31:21.158Z,24.48
2023-05-07T09:33:49.187Z,24.78
2023-05-07T09:36:16.913Z,25.28
2023-05-07T09:38:44.889Z,25.76
2023-05-07T09:41:12.756Z,26.10
2023-05-07T09:43:55.161Z,26.36
2023-05-07T09:46:30.044Z,26.74
2023-05-07T09:49:00.560Z,27.10
2023-05-07T09:51:40.902Z,27.23
2023-05-07T09:54:07.806Z,27.30
2023-05-07T09:56:38.102Z,27.42
2023-05-07T09:59:05.288Z,27.48
2023-05-07T10:01:33.434Z,27.10
2023-05-07T10:04:02.753Z,26.95
2023-05-07T10:06:30.752Z,26.94
2023-05-07T10:08:57.620Z,27.11
2023-05-07T10:11:24.670Z,27.57
2023-05-07T10:13:51.737Z,27.90
2023-05-07T10:16:18.686Z,28.27
2023-05-07T10:18:48.782Z,28.27
2023-05-07T10:21:23.487Z,28.05
2023-05-07T10:23:57.934Z,27.95
2023-05-07T10:26:25.576Z,28.11
2023-05-07T10:28:59.112Z,28.44
2023-05-07T10:31:44.577Z,28.58
2023-05-07T10:34:11.810Z,28.83
2023-05-07T10:36:39.960Z,28.88
2023-05-07T10:39:07.814Z,29.08
2023-05-07T10:41:35.694Z,29.40
2023-05-07T10:44:02.629Z,29.49
2023-05-07T10:46:33.649Z,29.63
2023-05-07T10:49:08.619Z,29.82
2023-05-07T10:52:16.349Z,30.06
2023-05-07T10:55:10.659Z,30.11
2023-05-07T10:57:43.125Z,29.83
2023-05-07T11:00:39.099Z,30.09
2023-05-07T11:03:10.283Z,30.15
2023-05-07T11:05:43.091Z,30.17
2023-05-07T11:08:21.549Z,30.50
2023-05-07T11:11:04.579Z,30.87
2023-05-07T11:13:51.911Z,30.96
2023-05-07T11:16:37.197Z,30.78
2023-05-07T11:19:10.969Z,30.99
2023-05-07T11:21:42.653Z,31.08
2023-05-07T11:24:22.341Z,31.19
2023-05-07T11:26:53.707Z,31.38
2023-05-07T11:29:22.869Z,31.44
2023-05-07T11:31:54.807Z,31.39
2023-05-07T11:34:24.065Z,31.29
2023-05-07T11:36:51.566Z,31.17
2023-05-07T11:39:29.048Z,31.40
2023-05-07T11:41:56.044Z,31.73
2023-05-07T11:44:22.897Z,31.97
2023-05-07T11:46:49.999Z,32.00
2023-05-07T11:49:17.596Z,32.00
2023-05-07T11:51:45.450Z,32.02
2023-05-07T11:54:14.111Z,31.96
2023-05-07T11:56:41.057Z,31.79
2023-05-07T11:59:07.910Z,31.89
2023-05-07T12:01:35.874Z,31.90
2023-05-07T12:04:03.928Z,32.03
2023-05-07T12:06:31.442Z,32.21
2023-05-07T12:08:58.279Z,32.27
2023-05-07T12:11:26.309Z,31.87
2023-05-07T12:13:54.531Z,31.24
2023-05-07T12:16:22.236Z,31.23
2023-05-07T12:18:49.245Z,31.24
2023-05-07T12:21:17.671Z,30.85
2023-05-07T12:23:44.890Z,30.37
2023-05-07T12:26:12.068Z,30.15
2023-05-07T12:28:39.364Z,29.94
2023-05-07T12:31:06.597Z,29.70
2023-05-07T12:33:38.719Z,29.68
2023-05-07T12:36:07.817Z,29.27
2023-05-07T12:38:38.438Z,28.90
2023-05-07T12:41:07.483Z,28.98
2023-05-07T12:43:34.770Z,28.96
2023-05-07T12:46:06.732Z,29.17
2023-05-07T12:48:33.890Z,29.39
2023-05-07T12:51:01.717Z,29.50
2023-05-07T12:53:28.920Z,29.59
2023-05-07T12:56:01.206Z,29.63
2023-05-07T12:58:33.455Z,29.89
2023-05-07T13:01:02.067Z,29.63
2023-05-07T13:03:29.706Z,29.57
2023-05-07T13:06:00.994Z,29.59
2023-05-07T13:08:32.153Z,29.63
2023-05-07T13:11:00.856Z,29.40
2023-05-07T13:13:30.115Z,29.19
2023-05-07T13:15:58.740Z,29.19
2023-05-07T13:18:26.838Z,29.11
2023-05-07T13:20:54.162Z,29.13
2023-05-07T13:23:21.574Z,29.30
2023-05-07T13:25:49.011Z,29.17
2023-05-07T13:28:17.190Z,29.17
2023-05-07T13:30:44.101Z,28.79
2023-05-07T13:33:11.099Z,28.61
2023-05-07T13:35:38.152Z,28.69
2023-05-07T13:38:10.633Z,28.64
2023-05-07T13:40:37.936Z,28.64
2023-05-07T13:43:05.978Z,28.74
2023-05-07T13:45:33.215Z,28.78
2023-05-07T13:48:00.959Z,28.65
2023-05-07T13:50:29.607Z,28.55
2023-05-07T13:52:56.548Z,28.27
2023-05-07T13:55:24.269Z,28.10
2023-05-07T13:58:06.921Z,27.95
2023-05-07T14:00:39.507Z,27.67
2023-05-07T14:03:06.798Z,27.45
2023-05-07T14:05:34.121Z,27.04
2023-05-07T14:08:01.104Z,26.83
2023-05-07T14:10:28.411Z,26.81
2023-05-07T14:12:55.392Z,26.53
2023-05-07T14:15:22.532Z,26.32
2023-05-07T14:17:49.563Z,26.01
2023-05-07T14:20:16.423Z,25.85
2023-05-07T14:22:43.546Z,25.49
2023-05-07T14:25:10.360Z,25.31
2023-05-07T14:27:37.374Z,25.26
2023-05-07T14:30:04.884Z,25.16
2023-05-07T14:32:33.449Z,25.03
2023-05-07T14:35:00.946Z,24.72
2023-05-07T14:37:28.625Z,24.28
2023-05-07T14:39:55.539Z,23.97
2023-05-07T14:42:22.613Z,23.84
2023-05-07T14:44:49.543Z,23.52
2023-05-07T14:47:17.612Z,23.33
2023-05-07T14:49:46.519Z,23.18
2023-05-07T14:52:13.423Z,23.03
2023-05-07T14:54:40.284Z,23.05
2023-05-07T14:57:10.496Z,23.16
2023-05-07T14:59:38.374Z,23.00
2023-05-07T15:02:08.261Z,22.82
2023-05-07T15:04:35.188Z,22.68
2023-05-07T15:07:02.362Z,22.50
2023-05-07T15:09:29.774Z,22.40
2023-05-07T15:11:56.925Z,22.23
2023-05-07T15:14:23.711Z,22.21
2023-05-07T15:16:50.620Z,22.20
2023-05-07T15:19:17.622Z,22.05
2023-05-07T15:21:44.500Z,21.96
2023-05-07T15:24:11.491Z,21.80
2023-05-07T15:26:38.565Z,21.70
2023-05-07T15:29:10.262Z,21.40
2023-05-07T15:31:38.514Z,21.27
2023-05-07T15:34:10.569Z,21.21
2023-05-07T15:36:38.074Z,21.15
2023-05-07T15:39:05.315Z,21.01
2023-05-07T15:41:33.445Z,20.94
2023-05-07T15:44:00.251Z,20.84
2023-05-07T15:46:32.660Z,20.67
2023-05-07T15:49:01.031Z,20.44
2023-05-07T15:51:28.637Z,20.21
2023-05-07T15:54:00.798Z,20.02
2023-05-07T15:56:28.083Z,19.89
2023-05-07T15:58:54.955Z,19.75
2023-05-07T16:03:48.979Z,19.45
2023-05-07T16:06:21.219Z,19.20
2023-05-07T16:08:48.604Z,19.00
2023-05-07T16:11:15.490Z,18.89
2023-05-07T16:13:42.688Z,18.75
2023-05-07T16:16:09.595Z,18.63
2023-05-07T16:18:36.628Z,18.44
2023-05-07T16:21:03.547Z,18.26
2023-05-07T16:23:31.064Z,18.12
2023-05-07T16:25:57.955Z,17.98
2023-05-07T16:28:25.686Z,17.84
2023-05-07T16:30:53.002Z,17.66
2023-05-07T16:33:20.050Z,17.47
2023-05-07T16:35:53.298Z,17.29
2023-05-07T16:38:20.202Z,17.09
2023-05-07T16:40:47.087Z,16.96
2023-05-07T16:43:14.033Z,16.88
2023-05-07T16:45:40.979Z,16.68
2023-05-07T16:48:12.966Z,16.50
2023-05-07T16:50:41.146Z,16.37
2023-05-07T16:53:08.022Z,16.28
2023-05-07T16:55:38.608Z,16.19
2023-05-07T16:58:11.533Z,16.04
2023-05-07T17:00:49.833Z,15.95
2023-05-07T17:03:18.725Z,15.83
2023-05-07T17:05:46.080Z,15.72
2023-05-07T17:08:12.983Z,15.67
2023-05-07T17:10:40.176Z,15.58
2023-05-07T17:13:07.261Z,15.43
2023-05-07T17:15:34.138Z,15.34
2023-05-07T17:18:06.351Z,15.26
2023-05-07T17:20:34.097Z,15.19
2023-05-07T17:23:01.026Z,15.10
2023-05-07T17:25:28.320Z,15.02
2023-05-07T17:27:55.266Z,14.94
2023-05-07T17:30:22.280Z,14.91
2023-05-07T17:32:49.544Z,14.84
2023-05-07T17:35:16.723Z,14.77
2023-05-07T17:37:48.636Z,14.70
2023-05-07T17:40:15.871Z,14.65
2023-05-07T17:42:42.916Z,14.57
2023-05-07T17:45:10.728Z,14.50
2023-05-07T17:47:37.960Z,14.46
2023-05-07T17:50:10.326Z,14.40
2023-05-07T17:52:43.333Z,14.35
2023-05-07T17:55:10.620Z,14.30
2023-05-07T17:57:38.491Z,14.20
2023-05-07T18:00:07.268Z,14.11
2023-05-07T18:02:34.953Z,14.09
2023-05-07T18:05:02.969Z,14.09
2023-05-07T18:07:30.675Z,14.04
2023-05-07T18:09:57.897Z,13.95
2023-05-07T18:12:26.909Z,13.89
2023-05-07T18:14:59.698Z,13.85
2023-05-07T18:17:27.378Z,13.79
2023-05-07T18:19:55.418Z,13.73
2023-05-07T18:22:22.812Z,13.68
2023-05-07T18:24:50.381Z,13.61
2023-05-07T18:27:17.820Z,13.55
2023-05-07T18:29:45.066Z,13.53
2023-05-07T18:32:12.996Z,13.49
2023-05-07T18:34:39.971Z,13.45
2023-05-07T18:37:06.853Z,13.38
2023-05-07T18:39:34.939Z,13.31
2023-05-07T18:42:04.608Z,13.25
2023-05-07T18:44:31.711Z,13.20
2023-05-07T18:46:59.053Z,13.17
2023-05-07T18:49:25.871Z,13.12
2023-05-07T18:51:57.860Z,13.08
2023-05-07T18:54:24.641Z,13.04
2023-05-07T18:56:51.436Z,13.02
2023-05-07T18:59:18.349Z,12.99
2023-05-07T19:01:45.654Z,12.90
2023-05-07T19:04:12.630Z,12.87
2023-05-07T19:06:39.568Z,12.84
2023-05-07T19:09:06.392Z,12.78
2023-05-07T19:11:33.412Z,12.75
2023-05-07T19:14:06.246Z,12.73
2023-05-07T19:16:33.435Z,12.70
2023-05-07T19:19:00.484Z,12.64
2023-05-07T19:21:28.164Z,12.58
2023-05-07T19:23:56.914Z,12.57
2023-05-07T19:26:23.772Z,12.52
2023-05-07T19:29:06.596Z,12.45
2023-05-07T19:31:38.339Z,12.39
2023-05-07T19:34:05.241Z,12.34
2023-05-07T19:36:33.889Z,12.34
2023-05-07T19:39:00.780Z,12.32
2023-05-07T19:41:28.241Z,12.30
2023-05-07T19:43:55.142Z,12.26
2023-05-07T19:46:27.338Z,12.22
2023-05-07T19:48:54.151Z,12.18
2023-05-07T19:51:21.114Z,12.17
2023-05-07T19:53:48.727Z,12.17
2023-05-07T19:56:21.777Z,12.13
2023-05-07T19:58:48.746Z,12.09
2023-05-07T20:01:15.757Z,12.05
2023-05-07T20:03:43.646Z,12.04
2023-05-07T20:06:11.681Z,12.03
2023-05-07T20:08:38.538Z,12.03
2023-05-07T20:11:05.763Z,12.06
2023-05-07T20:13:32.772Z,12.08
2023-05-07T20:16:00.198Z,12.07
2023-05-07T20:18:27.819Z,12.06
2023-05-07T20:20:59.954Z,12.00
2023-05-07T20:23:26.972Z,11.95
2023-05-07T20:25:54.335Z,11.92
2023-05-07T20:28:21.273Z,11.91
2023-05-07T20:30:48.149Z,11.87
2023-05-07T20:33:15.647Z,11.87
2023-05-07T20:35:42.701Z,11.84
2023-05-07T20:38:09.632Z,11.78
2023-05-07T20:40:42.430Z,11.76
2023-05-07T20:43:09.758Z,11.76
2023-05-07T20:45:36.731Z,11.75
2023-05-07T20:48:03.717Z,11.78
2023-05-07T20:50:31.860Z,11.77
2023-05-07T20:52:58.701Z,11.77
2023-05-07T20:55:25.620Z,11.74
2023-05-07T20:57:52.987Z,11.69
2023-05-07T21:00:20.060Z,11.65
2023-05-07T21:02:46.905Z,11.63
2023-05-07T21:05:13.812Z,11.61
2023-05-07T21:07:40.617Z,11.59
2023-05-07T21:10:07.899Z,11.56
2023-05-07T21:12:35.203Z,11.52
2023-05-07T21:15:02.067Z,11.49
2023-05-07T21:17:31.408Z,11.48
2023-05-07T21:19:58.374Z,11.45
2023-05-07T21:22:32.639Z,11.45
2023-05-07T21:25:00.147Z,11.40
2023-05-07T21:27:30.171Z,11.38
2023-05-07T21:30:02.728Z,11.36
2023-05-07T21:32:30.441Z,11.33
2023-05-07T21:34:59.056Z,11.29
2023-05-07T21:37:25.980Z,11.28
2023-05-07T21:39:52.863Z,11.28
2023-05-07T21:42:21.830Z,11.24
2023-05-07T21:44:50.458Z,11.20
2023-05-07T21:47:17.842Z,11.17
2023-05-07T21:49:44.722Z,11.16
2023-05-07T21:52:20.590Z,11.15
2023-05-07T21:54:47.405Z,11.12
2023-05-07T21:57:14.208Z,11.14
2023-05-07T21:59:41.188Z,11.15
2023-05-07T22:02:08.048Z,11.13
2023-05-07T22:04:34.914Z,11.12
2023-05-07T22:07:01.768Z,11.15
2023-05-07T22:09:28.891Z,11.18
2023-05-07T22:11:55.619Z,11.14
2023-05-07T22:14:27.514Z,11.08
2023-05-07T22:16:54.373Z,10.98
2023-05-07T22:19:21.352Z,10.93
2023-05-07T22:21:48.161Z,10.93
2023-05-07T22:24:14.979Z,10.92
2023-05-07T22:26:48.248Z,10.90
2023-05-07T22:29:15.040Z,10.90
2023-05-07T22:31:41.933Z,10.94
2023-05-07T22:34:08.782Z,10.96
2023-05-07T22:36:36.272Z,11.00
2023-05-07T22:39:06.545Z,10.99
2023-05-07T22:41:33.619Z,10.95
2023-05-07T22:44:00.525Z,10.93
2023-05-07T22:46:27.612Z,10.88
2023-05-07T22:48:54.755Z,10.88
2023-05-07T22:51:21.701Z,10.89
2023-05-07T22:53:48.610Z,10.88
2023-05-07T22:56:21.657Z,10.87
2023-05-07T22:58:49.042Z,10.85
2023-05-07T23:01:16.940Z,10.85
2023-05-07T23:03:43.863Z,10.79
2023-05-07T23:06:10.830Z,10.76
2023-05-07T23:08:37.628Z,10.73
2023-05-07T23:11:07.309Z,10.75
2023-05-07T23:13:34.378Z,10.72
2023-05-07T23:16:01.206Z,10.72
2023-05-07T23:18:29.805Z,10.77
2023-05-07T23:21:01.641Z,10.78
2023-05-07T23:23:33.115Z,10.78
2023-05-07T23:26:00.172Z,10.76
2023-05-07T23:28:32.373Z,10.76
2023-05-07T23:30:59.244Z,10.74
2023-05-07T23:33:26.177Z,10.72
2023-05-07T23:36:00.808Z,10.69
2023-05-07T23:38:27.922Z,10.71
2023-05-07T23:40:54.995Z,10.72
2023-05-07T23:43:21.993Z,10.71
2023-05-07T23:45:48.839Z,10.67
2023-05-07T23:48:16.080Z,10.61
2023-05-07T23:50:42.979Z,10.57
2023-05-07T23:53:10.126Z,10.53
2023-05-07T23:55:36.929Z,10.53
2023-05-07T23:58:04.276Z,10.50
